createdAt,value
2023-11-07T00:01:30.419Z,11.07
2023-11-07T00:03:58.684Z,10.25
2023-11-07T00:06:26.445Z,9.63
2023-11-07T00:08:55.507Z,9.57
2023-11-07T00:11:23.190Z,9.70
2023-11-07T00:13:51.654Z,10.55
2023-11-07T00:16:19.915Z,11.40
2023-11-07T00:18:48.803Z,12.18
2023-11-07T00:21:16.353Z,11.82
2023-11-07T00:23:43.972Z,11.73
2023-11-07T00:26:11.625Z,12.40
2023-11-07T00:28:44.706Z,12.30
2023-11-07T00:31:12.291Z,12.75
2023-11-07T00:33:39.926Z,12.85
2023-11-07T00:36:07.979Z,12.75
2023-11-07T00:38:35.550Z,12.20
2023-11-07T00:41:04.879Z,12.93
2023-11-07T00:43:32.652Z,12.13
2023-11-07T00:46:00.111Z,12.35
2023-11-07T00:48:28.062Z,11.95
2023-11-07T00:50:56.125Z,12.07
2023-11-07T00:53:24.609Z,11.88
2023-11-07T00:55:52.161Z,11.82
2023-11-07T00:58:23.029Z,12.07
2023-11-07T01:00:51.142Z,12.23
2023-11-07T01:03:19.947Z,11.50
2023-11-07T01:05:47.720Z,11.25
2023-11-07T01:08:15.789Z,12.25
2023-11-07T01:10:43.249Z,11.57
2023-11-07T01:13:10.836Z,11.18
2023-11-07T01:15:38.527Z,10.25
2023-11-07T01:18:06.802Z,7.28
2023-11-07T01:20:34.940Z,7.00
2023-11-07T01:23:02.905Z,7.57
2023-11-07T01:25:30.684Z,8.38
2023-11-07T01:27:58.329Z,10.68
2023-11-07T01:30:25.980Z,9.15
2023-11-07T01:32:53.963Z,9.80
2023-11-07T01:35:21.698Z,7.05
2023-11-07T01:37:49.751Z,5.70
2023-11-07T01:40:17.685Z,5.00
2023-11-07T01:42:45.721Z,5.28
2023-11-07T01:45:13.696Z,5.65
2023-11-07T01:47:42.108Z,9.75
2023-11-07T01:50:13.836Z,9.70
2023-11-07T01:52:42.908Z,10.07
2023-11-07T01:55:14.109Z,10.38
2023-11-07T01:57:43.553Z,5.53
2023-11-07T02:00:13.850Z,5.40
2023-11-07T02:02:42.397Z,5.50
2023-11-07T02:05:13.966Z,6.40
2023-11-07T02:07:41.683Z,6.20
2023-11-07T02:10:12.768Z,9.45
2023-11-07T02:12:40.508Z,10.82
2023-11-07T02:15:24.324Z,10.60
2023-11-07T02:17:52.406Z,10.75
2023-11-07T02:20:20.166Z,10.82
2023-11-07T02:22:50.995Z,9.52
2023-11-07T02:25:20.309Z,10.07
2023-11-07T02:27:47.988Z,10.25
2023-11-07T02:30:16.139Z,10.60
2023-11-07T02:32:44.742Z,11.82
2023-11-07T02:35:13.324Z,12.13
2023-11-07T02:37:41.793Z,11.82
2023-11-07T02:40:12.624Z,11.60
2023-11-07T02:42:40.156Z,11.35
2023-11-07T02:45:08.416Z,11.13
2023-11-07T02:47:41.697Z,10.40
2023-11-07T02:50:12.118Z,10.60
2023-11-07T02:52:40.239Z,10.75
2023-11-07T02:55:08.860Z,11.88
2023-11-07T02:57:36.992Z,10.57
2023-11-07T03:00:05.005Z,10.77
2023-11-07T03:02:36.836Z,13.33
2023-11-07T03:05:05.914Z,13.73
2023-11-07T03:07:34.165Z,13.60
2023-11-07T03:10:02.569Z,13.43
2023-11-07T03:12:30.888Z,12.10
2023-11-07T03:14:58.972Z,10.90
2023-11-07T03:17:26.928Z,12.23
2023-11-07T03:19:54.915Z,11.57
2023-11-07T03:22:27.784Z,12.00
2023-11-07T03:24:55.635Z,11.50
2023-11-07T03:27:23.603Z,12.03
2023-11-07T03:29:51.353Z,11.90
2023-11-07T03:32:20.965Z,12.30
2023-11-07T03:34:48.803Z,14.43
2023-11-07T03:37:16.431Z,12.50
2023-11-07T03:39:44.198Z,11.40
2023-11-07T03:42:16.387Z,10.67
2023-11-07T03:44:47.510Z,11.93
2023-11-07T03:47:15.733Z,11.20
2023-11-07T03:49:46.278Z,11.73
2023-11-07T03:52:14.130Z,11.77
2023-11-07T03:54:42.694Z,12.80
2023-11-07T03:57:10.331Z,12.17
2023-11-07T03:59:38.524Z,12.27
2023-11-07T04:02:06.637Z,11.50
2023-11-07T04:04:35.631Z,11.87
2023-11-07T04:07:03.062Z,10.47
2023-11-07T04:09:30.573Z,10.77
2023-11-07T04:11:58.496Z,10.07
2023-11-07T04:14:26.314Z,9.90
2023-11-07T04:16:54.029Z,10.20
2023-11-07T04:19:21.723Z,9.70
2023-11-07T04:21:49.974Z,10.30
2023-11-07T04:24:17.792Z,10.63
2023-11-07T04:26:45.483Z,10.87
2023-11-07T04:29:13.217Z,9.17
2023-11-07T04:31:42.079Z,9.20
2023-11-07T04:34:11.463Z,9.77
2023-11-07T04:36:44.091Z,8.67
2023-11-07T04:39:13.877Z,9.13
2023-11-07T04:41:43.142Z,9.77
2023-11-07T04:44:12.572Z,10.57
2023-11-07T04:46:41.383Z,11.20
2023-11-07T04:49:09.558Z,10.47
2023-11-07T04:51:37.868Z,10.50
2023-11-07T04:54:05.718Z,10.82
2023-11-07T04:56:33.904Z,9.93
2023-11-07T04:59:01.656Z,9.52
2023-11-07T05:01:29.261Z,9.43
2023-11-07T05:03:57.035Z,8.90
2023-11-07T05:06:25.268Z,10.68
2023-11-07T05:08:52.911Z,10.87
2023-11-07T05:11:20.717Z,12.73
2023-11-07T05:13:49.509Z,12.93
2023-11-07T05:16:18.022Z,11.40
2023-11-07T05:18:45.756Z,8.90
2023-11-07T05:21:13.592Z,7.50
2023-11-07T05:23:41.210Z,6.73
2023-11-07T05:26:10.245Z,6.77
2023-11-07T05:28:40.831Z,12.47
2023-11-07T05:31:08.371Z,15.30
2023-11-07T05:33:37.779Z,15.10
2023-11-07T05:36:05.551Z,16.50
2023-11-07T05:38:33.186Z,15.87
2023-11-07T05:41:00.985Z,16.77
2023-11-07T05:43:28.969Z,16.83
2023-11-07T05:45:56.959Z,18.20
2023-11-07T05:48:26.072Z,18.27
2023-11-07T05:50:54.060Z,19.07
2023-11-07T05:53:21.757Z,20.13
2023-11-07T05:55:49.720Z,20.37
2023-11-07T05:58:18.206Z,19.53
2023-11-07T06:00:46.052Z,19.20
2023-11-07T06:03:14.901Z,19.13
2023-11-07T06:05:46.871Z,18.20
2023-11-07T06:08:14.801Z,18.30
2023-11-07T06:10:42.766Z,17.23
2023-11-07T06:13:10.293Z,16.27
2023-11-07T06:15:39.213Z,15.43
2023-11-07T06:18:07.959Z,15.80
2023-11-07T06:20:36.025Z,15.37
2023-11-07T06:23:03.729Z,14.73
2023-11-07T06:25:31.206Z,13.40
2023-11-07T06:27:59.186Z,13.35
2023-11-07T06:30:31.226Z,12.63
2023-11-07T06:32:59.684Z,12.75
2023-11-07T06:35:27.771Z,12.15
2023-11-07T06:37:55.456Z,11.63
2023-11-07T06:40:24.955Z,11.50
2023-11-07T06:42:54.116Z,13.02
2023-11-07T06:45:21.968Z,12.85
2023-11-07T06:47:49.844Z,13.55
2023-11-07T06:50:17.920Z,15.35
2023-11-07T06:52:52.620Z,15.48
2023-11-07T06:55:26.797Z,14.93
2023-11-07T06:57:56.704Z,15.13
2023-11-07T07:00:27.099Z,14.48
2023-11-07T07:02:57.691Z,15.25
2023-11-07T07:05:26.937Z,15.07
2023-11-07T07:07:57.915Z,13.55
2023-11-07T07:10:26.432Z,14.25
2023-11-07T07:12:58.044Z,13.38
2023-11-07T07:15:26.228Z,12.70
2023-11-07T07:17:55.422Z,12.65
2023-11-07T07:20:24.800Z,11.48
2023-11-07T07:22:54.871Z,11.70
2023-11-07T07:25:28.130Z,11.45
2023-11-07T07:27:56.681Z,12.32
2023-11-07T07:30:27.686Z,11.48
2023-11-07T07:32:55.704Z,11.43
2023-11-07T07:35:23.736Z,11.60
2023-11-07T07:37:55.402Z,11.43
2023-11-07T07:40:27.721Z,11.05
2023-11-07T07:42:56.204Z,11.43
2023-11-07T07:45:28.361Z,12.07
2023-11-07T07:47:58.487Z,12.85
2023-11-07T07:50:26.842Z,11.93
2023-11-07T07:52:57.786Z,13.18
2023-11-07T07:55:34.958Z,13.13
2023-11-07T07:58:04.821Z,12.25
2023-11-07T08:00:32.898Z,11.70
2023-11-07T08:03:06.863Z,11.52
2023-11-07T08:05:41.468Z,10.60
2023-11-07T08:08:10.888Z,10.18
2023-11-07T08:10:40.093Z,9.85
2023-11-07T08:13:11.977Z,9.60
2023-11-07T08:15:39.886Z,8.63
2023-11-07T08:18:08.947Z,8.85
2023-11-07T08:20:38.496Z,8.23
2023-11-07T08:23:06.644Z,8.30
2023-11-07T08:25:35.624Z,8.45
2023-11-07T08:28:11.049Z,8.88
2023-11-07T08:30:39.537Z,8.95
2023-11-07T08:33:09.046Z,9.18
2023-11-07T08:35:38.104Z,8.43
2023-11-07T08:38:06.012Z,8.75
2023-11-07T08:40:33.907Z,8.45
2023-11-07T08:43:01.804Z,8.25
2023-11-07T08:45:30.153Z,7.85
2023-11-07T08:47:59.053Z,8.50
2023-11-07T08:50:28.985Z,8.27
2023-11-07T08:52:59.202Z,7.80
2023-11-07T08:55:27.573Z,7.78
2023-11-07T08:57:55.272Z,6.80
2023-11-07T09:00:24.527Z,5.80
2023-11-07T09:02:53.967Z,5.90
2023-11-07T09:05:23.874Z,5.45
2023-11-07T09:07:51.913Z,5.18
2023-11-07T09:10:21.792Z,5.35
2023-11-07T09:12:49.736Z,5.15
2023-11-07T09:15:21.670Z,5.05
2023-11-07T09:17:49.814Z,4.22
2023-11-07T09:20:18.269Z,3.30
2023-11-07T09:22:47.920Z,2.72
2023-11-07T09:25:15.578Z,2.50
2023-11-07T09:27:43.508Z,1.98
2023-11-07T09:30:12.717Z,2.08
2023-11-07T09:32:41.587Z,2.20
2023-11-07T09:35:09.739Z,2.05
2023-11-07T09:37:41.325Z,2.05
2023-11-07T09:40:22.038Z,1.90
2023-11-07T09:42:52.610Z,2.35
2023-11-07T09:45:36.447Z,1.60
2023-11-07T09:48:04.485Z,1.85
2023-11-07T09:50:35.172Z,1.92
2023-11-07T09:53:03.324Z,1.98
2023-11-07T09:55:33.260Z,1.90
2023-11-07T09:58:15.177Z,1.65
2023-11-07T10:00:46.149Z,1.40
2023-11-07T10:03:15.436Z,1.45
2023-11-07T10:05:44.360Z,1.50
2023-11-07T10:08:11.868Z,1.80
2023-11-07T10:10:41.495Z,1.30
2023-11-07T10:13:12.058Z,1.70
2023-11-07T10:15:40.526Z,1.40
2023-11-07T10:18:12.979Z,1.55
2023-11-07T10:20:56.618Z,1.40
2023-11-07T10:23:25.378Z,1.40
2023-11-07T10:25:53.114Z,1.35
2023-11-07T10:28:24.181Z,1.80
2023-11-07T10:30:52.442Z,1.58
2023-11-07T10:33:26.238Z,1.50
2023-11-07T10:35:57.208Z,1.80
2023-11-07T10:38:25.982Z,1.45
2023-11-07T10:40:53.988Z,1.50
2023-11-07T10:43:36.276Z,1.60
2023-11-07T10:46:08.147Z,1.30
2023-11-07T10:48:43.197Z,1.45
2023-11-07T10:51:12.980Z,1.30
2023-11-07T10:53:44.946Z,1.33
2023-11-07T10:56:14.903Z,1.50
2023-11-07T10:58:45.470Z,1.40
2023-11-07T11:01:14.685Z,1.30
2023-11-07T11:03:43.679Z,1.58
2023-11-07T11:06:15.927Z,1.50
2023-11-07T11:08:46.585Z,1.70
2023-11-07T11:11:15.903Z,1.60
2023-11-07T11:13:43.762Z,1.38
2023-11-07T11:16:12.244Z,1.25
2023-11-07T11:19:13.185Z,1.48
2023-11-07T11:22:01.141Z,1.40
2023-11-07T11:24:32.258Z,1.25
2023-11-07T11:27:15.377Z,1.13
2023-11-07T11:29:47.677Z,1.10
2023-11-07T11:32:25.387Z,0.73
2023-11-07T11:34:58.911Z,1.40
2023-11-07T11:37:26.836Z,1.10
2023-11-07T11:39:55.727Z,1.00
2023-11-07T11:42:23.383Z,1.38
2023-11-07T11:45:11.253Z,0.90
2023-11-07T11:47:54.061Z,1.00
2023-11-07T11:50:22.230Z,1.30
2023-11-07T11:52:50.391Z,1.40
2023-11-07T11:55:19.018Z,1.00
2023-11-07T11:58:21.660Z,1.15
2023-11-07T12:00:51.491Z,1.33
2023-11-07T12:03:20.866Z,1.10
2023-11-07T12:06:05.445Z,1.50
2023-11-07T12:08:36.890Z,1.10
2023-11-07T12:11:06.290Z,1.30
2023-11-07T12:13:37.064Z,1.02
2023-11-07T12:16:15.181Z,1.27
2023-11-07T12:18:43.231Z,1.25
2023-11-07T12:21:10.905Z,1.05
2023-11-07T12:23:40.122Z,1.35
2023-11-07T12:26:10.201Z,1.00
2023-11-07T12:28:43.449Z,1.15
2023-11-07T12:31:22.912Z,1.23
2023-11-07T12:33:53.335Z,1.10
2023-11-07T12:36:21.256Z,1.40
2023-11-07T12:38:49.098Z,1.42
2023-11-07T12:41:20.051Z,1.63
2023-11-07T12:43:47.926Z,1.15
2023-11-07T12:46:18.245Z,1.25
2023-11-07T12:48:48.784Z,1.15
2023-11-07T12:51:23.370Z,1.30
2023-11-07T12:53:51.580Z,1.25
2023-11-07T12:56:20.439Z,1.30
2023-11-07T12:58:48.251Z,1.23
2023-11-07T13:01:19.104Z,1.20
2023-11-07T13:03:46.857Z,1.20
2023-11-07T13:06:20.949Z,1.25
2023-11-07T13:08:49.052Z,1.33
2023-11-07T13:11:20.824Z,1.30
2023-11-07T13:13:50.645Z,1.52
2023-11-07T13:16:19.262Z,0.95
2023-11-07T13:18:51.184Z,1.00
2023-11-07T13:21:19.100Z,1.15
2023-11-07T13:23:48.628Z,1.70
2023-11-07T13:26:16.816Z,1.52
2023-11-07T13:28:45.675Z,2.10
2023-11-07T13:31:14.222Z,1.45
2023-11-07T13:33:43.771Z,1.27
2023-11-07T13:36:12.662Z,1.48
2023-11-07T13:38:40.232Z,1.40
2023-11-07T13:41:08.275Z,1.70
2023-11-07T13:43:36.547Z,1.48
2023-11-07T13:46:04.988Z,1.48
2023-11-07T13:48:35.158Z,1.50
2023-11-07T13:51:03.348Z,1.20
2023-11-07T13:53:31.239Z,1.60
2023-11-07T13:56:01.307Z,1.48
2023-11-07T13:58:29.097Z,1.30
2023-11-07T14:00:58.224Z,1.30
2023-11-07T14:03:26.132Z,1.33
2023-11-07T14:05:55.189Z,1.30
2023-11-07T14:08:22.936Z,1.40
2023-11-07T14:10:50.922Z,1.33
2023-11-07T14:13:20.305Z,1.40
2023-11-07T14:15:51.776Z,1.30
2023-11-07T14:18:25.670Z,1.55
2023-11-07T14:20:59.906Z,1.35
2023-11-07T14:23:29.738Z,1.30
2023-11-07T14:25:57.827Z,1.65
2023-11-07T14:28:25.666Z,1.50
2023-11-07T14:30:54.288Z,1.50
2023-11-07T14:33:22.372Z,1.70
2023-11-07T14:35:50.239Z,1.83
2023-11-07T14:38:21.388Z,2.30
2023-11-07T14:40:50.590Z,1.90
2023-11-07T14:43:18.630Z,1.83
2023-11-07T14:45:46.969Z,1.92
2023-11-07T14:48:17.698Z,1.70
2023-11-07T14:50:46.303Z,1.70
2023-11-07T14:53:19.994Z,1.67
2023-11-07T14:55:47.726Z,1.98
2023-11-07T14:58:17.294Z,2.13
2023-11-07T15:00:45.829Z,1.60
2023-11-07T15:03:16.268Z,1.90
2023-11-07T15:05:45.631Z,1.70
2023-11-07T15:08:13.863Z,1.63
2023-11-07T15:10:42.234Z,1.75
2023-11-07T15:13:10.575Z,1.73
2023-11-07T15:15:38.421Z,2.00
2023-11-07T15:18:07.006Z,1.80
2023-11-07T15:20:35.354Z,1.83
2023-11-07T15:23:03.617Z,2.10
2023-11-07T15:25:36.425Z,1.60
2023-11-07T15:28:04.964Z,1.73
2023-11-07T15:30:33.152Z,2.20
2023-11-07T15:33:02.493Z,2.50
2023-11-07T15:35:37.037Z,2.25
2023-11-07T15:38:09.832Z,2.50
2023-11-07T15:40:41.054Z,2.40
2023-11-07T15:43:10.179Z,2.50
2023-11-07T15:45:38.506Z,2.80
2023-11-07T15:48:09.636Z,3.30
2023-11-07T15:50:39.014Z,3.00
2023-11-07T15:53:09.200Z,3.22
2023-11-07T15:55:38.480Z,2.97
2023-11-07T15:58:06.850Z,3.25
2023-11-07T16:00:35.623Z,3.40
2023-11-07T16:03:05.390Z,3.50
2023-11-07T16:05:36.434Z,3.35
2023-11-07T16:08:06.289Z,3.28
2023-11-07T16:10:34.580Z,3.55
2023-11-07T16:13:05.850Z,4.35
2023-11-07T16:15:34.909Z,4.00
2023-11-07T16:18:03.585Z,4.78
2023-11-07T16:20:31.457Z,3.75
2023-11-07T16:22:59.034Z,4.55
2023-11-07T16:25:28.111Z,4.88
2023-11-07T16:27:56.112Z,4.75
2023-11-07T16:30:23.829Z,4.90
2023-11-07T16:32:52.289Z,4.85
2023-11-07T16:35:20.072Z,5.22
2023-11-07T16:37:47.878Z,4.78
2023-11-07T16:40:17.919Z,5.07
2023-11-07T16:42:46.521Z,6.25
2023-11-07T16:45:16.122Z,5.50
2023-11-07T16:47:44.485Z,5.20
2023-11-07T16:50:15.807Z,4.97
2023-11-07T16:52:43.368Z,4.88
2023-11-07T16:55:20.216Z,5.15
2023-11-07T16:57:48.769Z,5.05
2023-11-07T17:00:19.961Z,5.10
2023-11-07T17:02:49.050Z,5.30
2023-11-07T17:05:17.200Z,5.60
2023-11-07T17:07:45.534Z,5.80
2023-11-07T17:10:13.366Z,5.88
2023-11-07T17:12:41.070Z,5.45
2023-11-07T17:15:09.820Z,6.30
2023-11-07T17:17:38.092Z,5.93
2023-11-07T17:20:07.640Z,6.45
2023-11-07T17:22:37.588Z,6.43
2023-11-07T17:25:06.050Z,6.65
2023-11-07T17:27:34.043Z,6.55
2023-11-07T17:30:01.814Z,6.90
2023-11-07T17:32:29.681Z,7.43
2023-11-07T17:35:00.960Z,7.75
2023-11-07T17:37:30.249Z,7.22
2023-11-07T17:39:59.208Z,7.30
2023-11-07T17:42:27.412Z,7.03
2023-11-07T17:44:55.055Z,6.20
2023-11-07T17:47:23.940Z,7.20
2023-11-07T17:49:51.828Z,8.50
2023-11-07T17:52:19.566Z,7.40
2023-11-07T17:54:47.339Z,7.15
2023-11-07T17:57:15.102Z,7.25
2023-11-07T17:59:43.967Z,7.32
2023-11-07T18:02:13.221Z,7.10
2023-11-07T18:04:41.613Z,8.45
2023-11-07T18:07:09.659Z,6.93
2023-11-07T18:09:37.550Z,7.57
2023-11-07T18:12:05.200Z,7.97
2023-11-07T18:14:32.948Z,8.43
2023-11-07T18:17:00.941Z,7.70
2023-11-07T18:19:29.524Z,8.00
2023-11-07T18:21:58.532Z,8.63
2023-11-07T18:24:26.322Z,7.65
2023-11-07T18:26:54.668Z,8.18
2023-11-07T18:29:22.254Z,7.80
2023-11-07T18:31:50.183Z,7.43
2023-11-07T18:34:23.252Z,7.18
2023-11-07T18:37:01.785Z,8.07
2023-11-07T18:39:30.542Z,8.45
2023-11-07T18:41:58.979Z,8.98
2023-11-07T18:44:35.700Z,9.15
2023-11-07T18:47:04.614Z,9.73
2023-11-07T18:49:35.410Z,10.48
2023-11-07T18:52:04.096Z,11.60
2023-11-07T18:54:32.039Z,11.57
2023-11-07T18:56:59.973Z,12.80
2023-11-07T18:59:34.613Z,16.02
2023-11-07T19:02:06.929Z,15.20
2023-11-07T19:04:39.401Z,15.27
2023-11-07T19:07:09.293Z,13.18
2023-11-07T19:09:37.385Z,13.57
2023-11-07T19:12:06.011Z,14.27
2023-11-07T19:14:33.575Z,15.10
2023-11-07T19:17:01.773Z,15.75
2023-11-07T19:19:30.159Z,15.60
2023-11-07T19:21:59.296Z,16.13
2023-11-07T19:24:27.616Z,15.95
2023-11-07T19:26:55.772Z,16.13
2023-11-07T19:29:24.706Z,14.82
2023-11-07T19:31:53.646Z,14.10
2023-11-07T19:34:23.430Z,14.88
2023-11-07T19:36:52.877Z,13.25
2023-11-07T19:39:22.179Z,13.73
2023-11-07T19:41:50.001Z,14.00
2023-11-07T19:44:17.717Z,12.95
2023-11-07T19:46:45.606Z,12.75
2023-11-07T19:49:13.769Z,12.73
2023-11-07T19:51:41.943Z,11.48
2023-11-07T19:54:12.302Z,10.93
2023-11-07T19:56:41.859Z,11.60
2023-11-07T19:59:12.307Z,10.95
2023-11-07T20:01:41.192Z,11.63
2023-11-07T20:04:09.903Z,11.43
2023-11-07T20:06:38.536Z,11.10
2023-11-07T20:09:07.498Z,11.50
2023-11-07T20:11:37.926Z,11.75
2023-11-07T20:14:06.342Z,10.80
2023-11-07T20:16:34.219Z,12.10
2023-11-07T20:19:03.753Z,11.60
2023-11-07T20:21:31.510Z,11.18
2023-11-07T20:23:59.340Z,11.70
2023-11-07T20:26:27.103Z,11.45
2023-11-07T20:28:55.010Z,11.70
2023-11-07T20:31:23.348Z,13.30
2023-11-07T20:33:51.314Z,12.88
2023-11-07T20:36:20.659Z,12.90
2023-11-07T20:38:49.085Z,13.30
2023-11-07T20:41:17.882Z,17.25
2023-11-07T20:43:47.806Z,20.17
2023-11-07T20:46:30.812Z,27.70
2023-11-07T20:49:03.799Z,29.48
2023-11-07T20:51:33.280Z,30.92
2023-11-07T20:54:01.481Z,35.38
2023-11-07T20:56:30.755Z,39.33
2023-11-07T20:58:59.067Z,38.85
2023-11-07T21:01:27.999Z,40.65
2023-11-07T21:03:59.765Z,37.85
2023-11-07T21:06:28.191Z,37.75
2023-11-07T21:08:56.920Z,35.70
2023-11-07T21:11:24.650Z,36.80
2023-11-07T21:13:52.993Z,32.70
2023-11-07T21:16:20.974Z,33.90
2023-11-07T21:18:49.394Z,36.80
2023-11-07T21:21:17.619Z,36.08
2023-11-07T21:23:45.994Z,34.58
2023-11-07T21:26:15.001Z,34.58
2023-11-07T21:28:42.881Z,35.38
2023-11-07T21:31:11.183Z,34.42
2023-11-07T21:33:40.295Z,34.40
2023-11-07T21:36:08.492Z,34.60
2023-11-07T21:38:36.399Z,35.58
2023-11-07T21:41:07.824Z,33.25
2023-11-07T21:43:35.692Z,34.25
2023-11-07T21:46:04.408Z,34.10
2023-11-07T21:48:32.227Z,34.53
2023-11-07T21:50:59.996Z,33.17
2023-11-07T21:53:28.160Z,32.30
2023-11-07T21:55:57.350Z,35.38
2023-11-07T21:58:26.352Z,34.40
2023-11-07T22:00:54.128Z,34.55
2023-11-07T22:03:21.823Z,34.22
2023-11-07T22:05:49.998Z,35.10
2023-11-07T22:08:17.728Z,35.55
2023-11-07T22:10:45.405Z,35.05
2023-11-07T22:13:13.064Z,35.42
2023-11-07T22:15:41.374Z,37.88
2023-11-07T22:18:13.166Z,36.60
2023-11-07T22:20:40.826Z,36.42
2023-11-07T22:23:08.494Z,40.80
2023-11-07T22:25:36.280Z,37.40
2023-11-07T22:28:05.657Z,38.67
2023-11-07T22:30:33.452Z,37.30
2023-11-07T22:33:01.460Z,37.22
2023-11-07T22:35:34.943Z,37.30
2023-11-07T22:38:06.318Z,38.28
2023-11-07T22:40:34.336Z,37.63
2023-11-07T22:43:07.200Z,38.78
2023-11-07T22:45:37.062Z,38.35
2023-11-07T22:48:05.683Z,38.35
2023-11-07T22:50:33.285Z,37.97
2023-11-07T22:53:01.025Z,38.30
2023-11-07T22:55:29.347Z,39.30
2023-11-07T22:57:56.914Z,39.35
2023-11-07T23:00:40.378Z,38.85
2023-11-07T23:03:12.377Z,39.55
2023-11-07T23:05:41.178Z,41.72
2023-11-07T23:08:12.275Z,40.90
2023-11-07T23:10:41.735Z,42.13
2023-11-07T23:13:09.369Z,41.03
2023-11-07T23:15:40.500Z,43.72
2023-11-07T23:18:09.293Z,42.38
2023-11-07T23:20:41.470Z,44.80
2023-11-07T23:23:10.781Z,38.28
2023-11-07T23:25:38.504Z,40.97
2023-11-07T23:28:06.177Z,40.38
2023-11-07T23:30:34.529Z,40.20
2023-11-07T23:33:02.443Z,40.42
2023-11-07T23:35:30.275Z,41.63
2023-11-07T23:37:57.944Z,41.85
2023-11-07T23:40:26.318Z,42.40
2023-11-07T23:42:54.070Z,40.80
2023-11-07T23:45:23.536Z,41.95
2023-11-07T23:47:51.483Z,42.08
2023-11-07T23:50:19.524Z,42.03
2023-11-07T23:52:47.765Z,39.40
2023-11-07T23:55:15.301Z,39.10
2023-11-07T23:57:43.588Z,37.13
